createdAt,value
2023-09-06T00:01:48.905Z,50.7
2023-09-06T00:07:43.187Z,50.6
2023-09-06T00:13:35.448Z,50.6
2023-09-06T00:19:28.092Z,50.6
2023-09-06T00:25:20.662Z,50.6
2023-09-06T00:31:12.963Z,50.5
2023-09-06T00:37:05.320Z,50.5
2023-09-06T00:42:58.197Z,50.4
2023-09-06T00:48:50.466Z,50.4
2023-09-06T00:54:41.564Z,50.4
2023-09-06T01:00:33.726Z,50.4
2023-09-06T01:06:27.443Z,50.3
2023-09-06T01:12:17.912Z,50.3
2023-09-06T01:18:11.255Z,50.3
2023-09-06T01:24:03.498Z,50.3
2023-09-06T01:29:55.807Z,50.2
2023-09-06T01:35:49.552Z,50.2
2023-09-06T01:41:41.485Z,50.1
2023-09-06T01:47:33.444Z,50.1
2023-09-06T01:53:25.800Z,50.1
2023-09-06T01:59:18.175Z,50.1
2023-09-06T02:04:40.086Z,50
2023-09-06T02:10:32.170Z,50
2023-09-06T02:16:23.954Z,49.9
2023-09-06T02:22:01.334Z,49.9
2023-09-06T02:27:53.038Z,49.9
2023-09-06T02:33:46.251Z,49.9
2023-09-06T02:39:37.657Z,49.8
2023-09-06T02:45:30.068Z,49.8
2023-09-06T02:51:22.737Z,49.8
2023-09-06T02:57:14.397Z,49.8
2023-09-06T03:03:07.888Z,49.8
2023-09-06T03:09:00.229Z,49.7
2023-09-06T03:14:51.647Z,49.6
2023-09-06T03:20:45.842Z,49.6
2023-09-06T03:26:37.542Z,49.6
2023-09-06T03:32:30.034Z,49.6
2023-09-06T03:38:22.890Z,49.6
2023-09-06T03:44:15.577Z,49.5
2023-09-06T03:50:09.115Z,49.5
2023-09-06T03:55:46.529Z,49.4
2023-09-06T04:01:39.262Z,49.4
2023-09-06T04:07:32.519Z,49.4
2023-09-06T04:13:27.703Z,49.4
2023-09-06T04:19:20.741Z,49.3
2023-09-06T04:25:11.381Z,49.3
2023-09-06T04:31:04.940Z,49.3
2023-09-06T04:36:56.770Z,49.3
2023-09-06T04:42:48.212Z,49.2
2023-09-06T04:48:45.251Z,49.2
2023-09-06T04:54:22.223Z,49.1
2023-09-06T05:00:14.306Z,49.1
2023-09-06T05:06:07.853Z,49.1
2023-09-06T05:11:59.986Z,49
2023-09-06T05:17:52.242Z,49
2023-09-06T05:23:44.683Z,49
2023-09-06T05:29:20.918Z,48.9
2023-09-06T05:34:56.915Z,48.9
2023-09-06T05:40:34.211Z,48.9
2023-09-06T05:46:46.195Z,48.9
2023-09-06T05:52:41.488Z,48.9
2023-09-06T05:58:35.616Z,48.8
2023-09-06T06:04:28.442Z,48.8
2023-09-06T06:10:19.347Z,48.8
2023-09-06T06:16:23.182Z,48.8
2023-09-06T06:22:23.478Z,48.7
2023-09-06T06:28:15.530Z,48.7
2023-09-06T06:34:12.085Z,48.6
2023-09-06T06:40:04.278Z,48.6
2023-09-06T06:45:55.523Z,48.5
2023-09-06T06:51:49.406Z,48.5
2023-09-06T06:57:45.406Z,48.5
2023-09-06T07:03:37.121Z,48.4
2023-09-06T07:09:30.159Z,48.4
2023-09-06T07:15:22.619Z,48.4
2023-09-06T07:21:19.392Z,48.3
2023-09-06T07:27:11.044Z,48.3
2023-09-06T07:33:03.273Z,48.3
2023-09-06T07:38:56.946Z,48.3
2023-09-06T07:44:49.701Z,48.3
2023-09-06T07:50:44.228Z,48.2
2023-09-06T07:56:36.110Z,48.2
2023-09-06T08:02:42.036Z,48.1
2023-09-06T08:08:36.294Z,48.1
2023-09-06T08:14:28.784Z,48.1
2023-09-06T08:20:09.380Z,48.1
2023-09-06T08:26:15.271Z,48.1
2023-09-06T08:32:09.414Z,48
2023-09-06T08:38:03.039Z,48.6
2023-09-06T08:43:55.432Z,49.4
2023-09-06T08:49:33.072Z,50.3
2023-09-06T08:55:12.273Z,51.2
2023-09-06T09:01:06.221Z,52
2023-09-06T09:07:15.806Z,52.5
2023-09-06T09:13:08.783Z,52.8
2023-09-06T09:19:19.696Z,52.8
2023-09-06T09:25:12.841Z,52.8
2023-09-06T09:31:06.907Z,52.8
2023-09-06T09:36:59.614Z,52.8
2023-09-06T09:43:05.098Z,52.8
2023-09-06T09:49:15.648Z,52.7
2023-09-06T09:55:18.844Z,52.7
2023-09-06T10:00:54.669Z,52.7
2023-09-06T10:06:58.735Z,52.6
2023-09-06T10:13:07.201Z,52.6
2023-09-06T10:19:02.941Z,52.6
2023-09-06T10:25:11.426Z,52.6
2023-09-06T10:31:24.098Z,52.6
2023-09-06T10:37:15.870Z,52.5
2023-09-06T10:43:08.040Z,52.4
2023-09-06T10:49:00.860Z,52.4
2023-09-06T11:06:26.619Z,52.3
2023-09-06T11:12:37.178Z,52.3
2023-09-06T11:18:30.470Z,52.3
2023-09-06T11:24:23.296Z,52.3
2023-09-06T11:30:00.402Z,52.2
2023-09-06T11:35:53.718Z,52.2
2023-09-06T11:41:45.252Z,52.1
2023-09-06T11:47:37.489Z,52.1
2023-09-06T11:53:45.986Z,52.1
2023-09-06T11:59:39.328Z,52.1
2023-09-06T12:05:42.611Z,52
2023-09-06T12:11:41.316Z,52
2023-09-06T12:28:35.263Z,51.9
2023-09-06T12:34:39.940Z,51.9
2023-09-06T12:40:33.363Z,51.8
2023-09-06T12:46:28.662Z,51.8
2023-09-06T12:52:20.884Z,51.8
2023-09-06T12:58:16.160Z,51.8
2023-09-06T13:04:09.287Z,51.7
2023-09-06T13:10:02.222Z,51.7
2023-09-06T13:15:41.918Z,51.6
2023-09-06T13:21:36.046Z,51.6
2023-09-06T13:27:28.131Z,51.6
2023-09-06T13:33:20.311Z,51.5
2023-09-06T13:39:13.949Z,51.5
2023-09-06T13:45:08.546Z,51.5
2023-09-06T13:51:01.868Z,51.4
2023-09-06T13:56:54.380Z,51.4
2023-09-06T14:02:31.950Z,51.4
2023-09-06T14:08:24.782Z,51.3
2023-09-06T14:14:16.942Z,51.3
2023-09-06T14:19:54.023Z,51.3
2023-09-06T14:25:46.106Z,51.3
2023-09-06T14:31:39.857Z,51.2
2023-09-06T14:37:32.681Z,51.2
2023-09-06T14:43:09.350Z,51.1
2023-09-06T14:49:02.802Z,51.1
2023-09-06T14:54:54.017Z,51.1
2023-09-06T15:00:35.057Z,51.1
2023-09-06T15:06:43.814Z,51
2023-09-06T15:12:44.555Z,51
2023-09-06T15:18:20.172Z,51
2023-09-06T15:24:24.884Z,50.9
2023-09-06T15:30:16.173Z,50.9
2023-09-06T15:36:08.122Z,50.9
2023-09-06T15:41:59.308Z,50.8
2023-09-06T15:47:51.035Z,50.8
2023-09-06T15:53:43.560Z,50.8
2023-09-06T15:59:35.887Z,50.8
2023-09-06T16:05:47.490Z,50.8
2023-09-06T16:11:40.172Z,50.7
2023-09-06T16:17:35.426Z,50.6
2023-09-06T16:23:30.097Z,50.6
2023-09-06T16:29:21.536Z,50.6
2023-09-06T16:35:15.428Z,50.6
2023-09-06T16:41:09.001Z,50.6
2023-09-06T16:47:00.526Z,50.5
2023-09-06T16:52:55.284Z,50.5
2023-09-06T16:58:47.565Z,50.4
2023-09-06T17:04:40.242Z,50.4
2023-09-06T17:10:32.297Z,50.4
2023-09-06T17:16:23.701Z,50.4
2023-09-06T17:22:17.222Z,50.3
2023-09-06T17:28:19.569Z,50.3
2023-09-06T17:34:11.312Z,50.3
2023-09-06T17:39:46.817Z,50.3
2023-09-06T17:45:38.651Z,50.2
2023-09-06T17:51:32.987Z,50.2
2023-09-06T17:57:24.051Z,50.1
2023-09-06T18:03:20.564Z,50.1
2023-09-06T18:09:15.215Z,50.1
2023-09-06T18:15:06.796Z,50.1
2023-09-06T18:20:59.480Z,50
2023-09-06T18:27:05.839Z,50
2023-09-06T18:32:45.100Z,50
2023-09-06T18:38:20.990Z,49.9
2023-09-06T18:44:13.174Z,49.9
2023-09-06T18:49:51.089Z,49.9
2023-09-06T18:55:43.105Z,49.9
2023-09-06T19:01:47.152Z,49.8
2023-09-06T19:07:41.173Z,49.8
2023-09-06T19:13:33.420Z,49.8
2023-09-06T19:19:27.615Z,49.8
2023-09-06T19:25:18.363Z,49.7
2023-09-06T19:31:11.995Z,49.7
2023-09-06T19:37:08.225Z,49.6
2023-09-06T19:42:59.898Z,49.6
2023-09-06T19:48:47.333Z,49.6
2023-09-06T19:54:46.395Z,49.6
2023-09-06T20:00:37.163Z,49.5
2023-09-06T20:06:32.878Z,49.5
2023-09-06T20:12:09.586Z,49.4
2023-09-06T20:17:47.646Z,49.4
2023-09-06T20:23:39.472Z,49.4
2023-09-06T20:29:31.154Z,49.4
2023-09-06T20:35:23.005Z,49.4
2023-09-06T20:41:15.605Z,49.3
2023-09-06T20:47:07.565Z,49.3
2023-09-06T20:52:59.897Z,49.3
2023-09-06T20:58:51.483Z,49.2
2023-09-06T21:04:47.036Z,49.2
2023-09-06T21:10:22.455Z,49.2
2023-09-06T21:15:59.373Z,49.1
2023-09-06T21:21:37.901Z,49.1
2023-09-06T21:27:29.052Z,49.1
2023-09-06T21:33:31.843Z,49.1
2023-09-06T21:39:23.631Z,49
2023-09-06T21:45:28.913Z,49
2023-09-06T21:51:22.491Z,48.9
2023-09-06T21:57:14.266Z,48.9
2023-09-06T22:03:21.976Z,48.9
2023-09-06T22:09:14.670Z,48.9
2023-09-06T22:15:06.423Z,48.8
2023-09-06T22:20:58.134Z,48.8
2023-09-06T22:26:50.313Z,48.8
2023-09-06T22:32:43.462Z,48.8
2023-09-06T22:38:34.810Z,48.7
2023-09-06T22:44:12.195Z,48.7
2023-09-06T22:50:19.118Z,48.6
2023-09-06T22:56:11.370Z,48.6
2023-09-06T23:02:04.659Z,48.6
2023-09-06T23:08:00.085Z,48.6
2023-09-06T23:13:36.540Z,48.6
2023-09-06T23:19:13.951Z,48.5
2023-09-06T23:25:06.442Z,48.5
2023-09-06T23:30:43.259Z,48.5
2023-09-06T23:36:36.564Z,48.4
2023-09-06T23:42:14.042Z,48.4
2023-09-06T23:47:50.713Z,48.4
2023-09-06T23:53:27.906Z,48.4
2023-09-06T23:59:32.440Z,48.3
